Time;durP1;ratioP1;P1;durP2;ratioP2;P2;SDS_P1;SDS_P2;PMS_P1;PMS_P2;Temp;Humidity;BMP_temperature;BMP_pressure;BME280_temperature;BME280_humidity;BME280_pressure;Samples;Min_cycle;Max_cycle;Signal;HPM_P1;HPM_P2
2023/10/03 00:00:56;;;;;;;11.30;6.70;;;;;;;10.63;78.56;100530.42;106496;1253;60543;-81
2023/10/03 00:03:24;;;;;;;11.90;6.30;;;;;;;10.60;78.54;100528.60;106494;1258;60355;-81
2023/10/03 00:05:52;;;;;;;8.00;5.20;;;;;;;10.56;78.96;100527.42;106296;1260;72721;-82
2023/10/03 00:08:20;;;;;;;12.00;6.40;;;;;;;10.53;78.66;100533.26;105870;1259;68183;-82
2023/10/03 00:10:47;;;;;;;10.40;5.60;;;;;;;10.51;78.92;100535.52;106008;1253;71533;-82
2023/10/03 00:13:17;;;;;;;10.40;6.20;;;;;;;10.56;78.73;100536.41;105875;1253;60659;-80
2023/10/03 00:15:45;;;;;;;14.20;5.90;;;;;;;10.57;78.53;100537.58;106125;1253;60566;-81
2023/10/03 00:18:12;;;;;;;15.60;6.40;;;;;;;10.50;78.79;100542.69;106012;1254;74146;-77
2023/10/03 00:20:41;;;;;;;10.40;6.00;;;;;;;10.42;79.14;100544.48;105963;1257;69608;-80
2023/10/03 00:23:09;;;;;;;9.90;6.00;;;;;;;10.37;79.30;100544.63;105838;1253;71444;-79
2023/10/03 00:25:38;;;;;;;11.30;5.90;;;;;;;10.40;79.27;100547.35;105716;1260;61680;-79
2023/10/03 00:28:06;;;;;;;13.20;6.30;;;;;;;10.43;79.24;100545.99;106219;1258;60429;-79
2023/10/03 00:30:35;;;;;;;10.90;6.50;;;;;;;10.40;79.60;100543.14;107719;1259;72834;-80
2023/10/03 00:33:04;;;;;;;8.70;5.40;;;;;;;10.37;79.39;100544.13;106857;1254;69431;-81
2023/10/03 00:35:34;;;;;;;11.80;5.90;;;;;;;10.33;79.66;100543.77;106182;1258;71443;-82
2023/10/03 00:38:07;;;;;;;9.90;5.60;;;;;;;10.31;79.65;100536.88;105858;1260;60407;-80
2023/10/03 00:40:35;;;;;;;12.00;5.90;;;;;;;10.38;79.67;100537.16;105908;1254;60633;-79
2023/10/03 00:43:03;;;;;;;9.30;6.30;;;;;;;10.36;79.67;100538.73;105703;1260;73907;-81
2023/10/03 00:45:31;;;;;;;14.20;6.10;;;;;;;10.30;79.92;100539.31;105756;1256;69008;-81
2023/10/03 00:48:01;;;;;;;11.70;5.70;;;;;;;10.24;80.08;100540.77;106058;1256;71059;-80
2023/10/03 00:50:31;;;;;;;12.00;6.50;;;;;;;10.27;80.15;100535.30;106064;1255;61140;-81
2023/10/03 00:53:04;;;;;;;9.90;5.40;;;;;;;10.34;79.94;100536.65;106032;1254;60463;-80
2023/10/03 00:55:33;;;;;;;9.40;5.50;;;;;;;10.31;79.87;100530.70;107389;1255;74348;-80
2023/10/03 00:58:06;;;;;;;11.30;5.60;;;;;;;10.26;79.98;100530.41;108461;1254;68713;-81
2023/10/03 01:00:45;;;;;;;11.90;5.70;;;;;;;10.21;80.27;100531.77;108585;1256;71100;-80
2023/10/03 01:03:27;;;;;;;8.50;4.80;;;;;;;10.23;80.35;100530.94;107390;1256;60425;-81
2023/10/03 01:05:58;;;;;;;9.60;5.00;;;;;;;10.32;80.14;100531.16;106535;1259;60419;-79
2023/10/03 01:08:29;;;;;;;14.00;6.40;;;;;;;10.30;80.30;100532.55;108187;1256;72433;-79
2023/10/03 01:10:58;;;;;;;9.60;6.00;;;;;;;10.24;80.33;100528.33;105972;1258;69483;-79
2023/10/03 01:13:27;;;;;;;11.50;6.10;;;;;;;10.21;80.47;100524.70;105967;1256;71463;-80
2023/10/03 01:15:55;;;;;;;8.80;5.40;;;;;;;10.19;80.66;100525.98;105704;1256;61774;-76
2023/10/03 01:18:26;;;;;;;8.70;4.80;;;;;;;10.26;80.28;100527.98;105601;1256;60468;-76
2023/10/03 01:21:00;;;;;;;9.90;5.60;;;;;;;10.29;80.32;100532.63;105585;1256;73833;-75
2023/10/03 01:23:36;;;;;;;13.10;5.60;;;;;;;10.25;80.43;100531.63;105778;1258;69361;-73
2023/10/03 01:26:04;;;;;;;13.10;6.20;;;;;;;10.20;80.51;100523.46;105310;1261;71371;-78
2023/10/03 01:28:35;;;;;;;10.40;5.10;;;;;;;10.16;80.50;100525.17;105615;1255;61138;-77
2023/10/03 01:31:02;;;;;;;12.50;6.40;;;;;;;10.21;80.53;100521.18;105686;1256;60463;-76
2023/10/03 01:33:31;;;;;;;10.60;5.30;;;;;;;10.26;80.46;100524.79;105625;1260;73961;-75
2023/10/03 01:36:02;;;;;;;13.70;5.70;;;;;;;10.22;80.51;100520.73;105762;1261;70080;-77
2023/10/03 01:38:30;;;;;;;10.90;6.00;;;;;;;10.17;80.42;100521.77;106117;1256;72795;-80
2023/10/03 01:40:58;;;;;;;10.20;4.90;;;;;;;10.13;80.67;100521.75;106527;1262;60390;-80
2023/10/03 01:43:26;;;;;;;10.80;5.50;;;;;;;10.17;80.71;100521.88;107133;1256;60314;-80
2023/10/03 01:45:54;;;;;;;10.90;5.80;;;;;;;10.21;80.67;100522.41;107571;1257;72555;-78
2023/10/03 01:48:23;;;;;;;11.40;6.10;;;;;;;10.17;80.64;100521.79;105869;1256;70438;-80
2023/10/03 01:50:51;;;;;;;12.10;7.20;;;;;;;10.10;80.89;100519.77;106253;1260;71320;-79
2023/10/03 01:53:19;;;;;;;9.30;5.10;;;;;;;10.05;80.94;100520.02;106197;1258;60464;-80
2023/10/03 01:55:48;;;;;;;11.20;6.10;;;;;;;10.10;80.86;100516.73;106277;1254;60329;-80
2023/10/03 01:58:16;;;;;;;13.30;6.80;;;;;;;10.13;80.69;100521.59;108916;1255;72664;-79
2023/10/03 02:00:44;;;;;;;13.10;6.70;;;;;;;10.10;80.83;100519.98;108739;1256;68764;-77
2023/10/03 02:03:14;;;;;;;12.30;6.60;;;;;;;10.03;81.12;100515.59;107964;1254;71485;-77
2023/10/03 02:05:43;;;;;;;11.10;5.80;;;;;;;10.01;81.27;100515.64;107655;1256;60480;-78
2023/10/03 02:08:17;;;;;;;12.80;6.00;;;;;;;10.07;81.24;100517.92;105991;1258;60804;-79
2023/10/03 02:10:46;;;;;;;10.70;5.70;;;;;;;10.08;81.07;100516.05;105820;1256;73871;-81
2023/10/03 02:13:17;;;;;;;13.30;6.20;;;;;;;10.02;81.19;100517.15;105922;1254;70045;-80
2023/10/03 02:15:46;;;;;;;10.90;7.10;;;;;;;9.95;81.40;100517.63;106068;1256;71051;-79
2023/10/03 02:18:18;;;;;;;11.30;6.00;;;;;;;9.89;81.65;100519.27;105828;1256;60408;-79
2023/10/03 02:20:53;;;;;;;10.90;5.70;;;;;;;9.91;81.62;100521.55;107316;1256;59951;-79
2023/10/03 02:23:23;;;;;;;9.70;5.80;;;;;;;9.95;81.55;100520.63;107050;1256;72625;-78
2023/10/03 02:25:53;;;;;;;10.30;6.10;;;;;;;9.91;81.71;100518.23;105908;1260;68718;-79
2023/10/03 02:28:21;;;;;;;11.00;6.30;;;;;;;9.84;81.74;100519.22;105791;1260;71419;-80
2023/10/03 02:30:51;;;;;;;9.90;5.70;;;;;;;9.79;81.89;100521.77;106798;1254;60371;-78
2023/10/03 02:33:22;;;;;;;11.80;6.10;;;;;;;9.82;81.86;100519.67;107212;1256;60547;-79
2023/10/03 02:35:53;;;;;;;10.20;5.90;;;;;;;9.88;81.80;100517.23;105805;1256;71647;-80
2023/10/03 02:38:25;;;;;;;11.00;6.60;;;;;;;9.85;81.90;100518.02;106032;1259;70670;-79
2023/10/03 02:40:57;;;;;;;10.60;5.60;;;;;;;9.79;82.03;100518.73;105801;1259;70731;-79
2023/10/03 02:43:30;;;;;;;12.30;6.50;;;;;;;9.73;82.18;100513.34;105881;1258;62079;-81
2023/10/03 02:45:58;;;;;;;12.30;6.20;;;;;;;9.77;82.26;100513.64;105964;1256;60635;-80
2023/10/03 02:48:26;;;;;;;13.70;6.10;;;;;;;9.80;82.58;100514.84;105728;1260;73914;-79
2023/10/03 02:50:55;;;;;;;14.20;7.60;;;;;;;9.75;82.36;100517.08;105859;1254;70800;-81
2023/10/03 02:53:22;;;;;;;12.70;5.90;;;;;;;9.69;82.54;100517.95;106081;1257;71418;-81
2023/10/03 02:55:51;;;;;;;12.80;7.10;;;;;;;9.67;82.64;100516.73;106542;1260;60520;-81
2023/10/03 02:58:22;;;;;;;12.00;6.30;;;;;;;9.73;82.47;100519.35;108014;1256;59115;-78
2023/10/03 03:00:53;;;;;;;13.60;7.70;;;;;;;9.71;82.26;100518.13;108431;1255;72565;-79
2023/10/03 03:03:32;;;;;;;13.70;7.40;;;;;;;9.66;82.57;100516.96;107429;1256;68761;-80
2023/10/03 03:06:11;;;;;;;12.80;6.80;;;;;;;9.63;82.66;100520.60;106418;1256;72012;-82
2023/10/03 03:08:40;;;;;;;12.00;6.30;;;;;;;9.70;82.56;100521.75;106142;1254;60374;-82
2023/10/03 03:11:10;;;;;;;15.30;7.50;;;;;;;9.72;82.79;100520.48;106358;1256;60274;-81
2023/10/03 03:13:38;;;;;;;12.00;7.60;;;;;;;9.66;82.83;100519.43;105853;1253;73000;-81
2023/10/03 03:16:06;;;;;;;10.60;6.20;;;;;;;9.59;82.90;100518.11;105901;1258;69217;-80
2023/10/03 03:18:41;;;;;;;11.10;6.10;;;;;;;9.59;83.00;100521.86;105902;1255;72846;-77
2023/10/03 03:21:13;;;;;;;11.60;6.20;;;;;;;9.65;82.98;100527.31;105944;1258;60442;-79
2023/10/03 03:23:43;;;;;;;12.30;6.40;;;;;;;9.65;83.10;100526.27;107880;1253;60348;-78
2023/10/03 03:26:21;;;;;;;15.50;7.70;;;;;;;9.60;83.32;100521.73;107671;1255;73019;-77
2023/10/03 03:28:51;;;;;;;20.50;9.40;;;;;;;9.59;83.60;100513.50;108572;1253;68714;-80
2023/10/03 03:31:22;;;;;;;13.30;6.70;;;;;;;9.73;83.15;100515.65;107392;1254;74844;-77
2023/10/03 03:33:51;;;;;;;14.60;6.90;;;;;;;9.83;83.24;100513.80;106244;1253;60451;-75
2023/10/03 03:36:21;;;;;;;13.60;7.10;;;;;;;9.85;82.91;100509.91;106220;1258;60325;-76
2023/10/03 03:38:51;;;;;;;17.10;7.60;;;;;;;9.86;82.87;100509.15;105770;1256;73928;-77
2023/10/03 03:41:19;;;;;;;16.10;6.90;;;;;;;9.85;82.49;100511.13;105783;1258;68711;-78
2023/10/03 03:43:48;;;;;;;15.90;7.30;;;;;;;9.90;82.45;100510.10;105843;1253;72541;-79
2023/10/03 03:46:19;;;;;;;11.60;6.50;;;;;;;9.93;81.95;100510.39;105876;1258;60320;-78
2023/10/03 03:48:47;;;;;;;15.20;6.90;;;;;;;9.89;81.94;100509.89;105858;1260;60503;-80
2023/10/03 03:51:16;;;;;;;11.40;7.00;;;;;;;9.85;82.18;100509.20;106086;1254;71872;-80
2023/10/03 03:53:43;;;;;;;13.10;6.70;;;;;;;9.83;82.12;100511.44;106344;1260;68850;-79
2023/10/03 03:56:12;;;;;;;13.80;6.80;;;;;;;9.83;82.06;100509.59;106285;1258;70680;-80
2023/10/03 03:58:42;;;;;;;13.90;7.50;;;;;;;9.88;81.44;100515.67;107920;1254;61217;-82
2023/10/03 04:01:28;;;;;;;14.40;7.60;;;;;;;9.92;81.30;100510.69;108816;1254;59487;-79
2023/10/03 04:03:58;;;;;;;14.20;7.00;;;;;;;9.88;81.16;100515.97;107649;1256;76059;-79
2023/10/03 04:06:26;;;;;;;17.90;7.70;;;;;;;9.82;81.30;100513.20;105988;1253;70338;-77
2023/10/03 04:08:53;;;;;;;15.80;7.70;;;;;;;9.76;81.10;100513.75;105912;1259;71739;-77
2023/10/03 04:11:35;;;;;;;14.80;6.90;;;;;;;9.79;81.19;100513.45;105842;1257;61736;-77
2023/10/03 04:14:05;;;;;;;15.90;7.60;;;;;;;9.83;81.18;100518.03;106381;1253;60388;-79
2023/10/03 04:16:43;;;;;;;13.70;6.90;;;;;;;9.80;81.48;100515.11;105910;1256;73989;-78
2023/10/03 04:19:11;;;;;;;13.10;7.10;;;;;;;9.75;81.63;100517.91;105999;1258;69480;-80
2023/10/03 04:21:40;;;;;;;13.70;6.80;;;;;;;9.69;81.49;100520.27;106111;1256;72918;-82
2023/10/03 04:24:11;;;;;;;13.40;7.30;;;;;;;9.66;81.81;100521.02;105720;1261;60855;-81
2023/10/03 04:26:42;;;;;;;17.80;6.60;;;;;;;9.73;81.78;100520.82;106197;1259;60531;-82
2023/10/03 04:29:11;;;;;;;14.50;7.30;;;;;;;9.74;81.73;100523.27;105725;1256;72711;-82
2023/10/03 04:31:40;;;;;;;11.50;6.80;;;;;;;9.70;82.02;100523.48;106249;1256;70311;-81
2023/10/03 04:34:09;;;;;;;17.10;6.60;;;;;;;9.68;82.20;100520.67;105984;1256;71114;-79
2023/10/03 04:36:36;;;;;;;14.60;7.20;;;;;;;9.70;82.39;100520.33;105736;1260;60497;-80
2023/10/03 04:39:04;;;;;;;12.40;6.90;;;;;;;9.80;82.20;100525.91;105790;1253;60507;-80
2023/10/03 04:41:35;;;;;;;20.30;8.00;;;;;;;9.87;82.32;100528.16;105896;1253;72643;-79
2023/10/03 04:44:03;;;;;;;21.40;7.50;;;;;;;9.86;82.06;100535.62;105937;1259;70457;-80
2023/10/03 04:46:31;;;;;;;20.00;7.50;;;;;;;9.88;82.13;100539.50;105935;1259;72740;-81
2023/10/03 04:48:58;;;;;;;16.60;7.50;;;;;;;9.95;81.97;100537.23;106469;1256;60408;-79
2023/10/03 04:51:25;;;;;;;15.20;7.50;;;;;;;10.12;81.51;100532.79;106807;1259;59176;-80
2023/10/03 04:53:53;;;;;;;13.50;7.40;;;;;;;10.24;81.58;100534.73;105863;1260;73784;-80
2023/10/03 04:56:21;;;;;;;20.50;8.50;;;;;;;10.33;80.89;100535.54;105981;1256;70805;-79
2023/10/03 05:01:17;;;;;;;25.30;8.20;;;;;;;10.48;80.21;100532.84;105546;1292;599384;-80
2023/10/03 05:03:45;;;;;;;18.00;8.00;;;;;;;10.61;80.11;100533.45;106742;1271;60381;-80
2023/10/03 05:06:13;;;;;;;27.20;9.40;;;;;;;10.72;79.27;100532.61;105878;1264;60031;-79
2023/10/03 05:08:42;;;;;;;27.20;9.60;;;;;;;10.76;79.06;100528.69;105794;1264;71568;-79
2023/10/03 05:11:13;;;;;;;24.00;8.20;;;;;;;10.79;79.05;100525.34;105595;1259;68756;-82
2023/10/03 05:13:43;;;;;;;17.40;7.40;;;;;;;10.86;78.64;100528.27;105544;1260;71014;-80
2023/10/03 05:16:10;;;;;;;24.50;9.50;;;;;;;10.98;78.18;100532.76;105407;1262;60777;-82
2023/10/03 05:18:39;;;;;;;20.30;7.80;;;;;;;11.07;77.93;100536.84;105808;1257;60073;-81
2023/10/03 05:21:07;;;;;;;17.40;8.40;;;;;;;11.08;77.98;100532.60;105764;1257;71653;-83
2023/10/03 05:23:35;;;;;;;12.50;7.10;;;;;;;11.11;77.83;100527.51;105717;1257;68815;-82
2023/10/03 05:26:02;;;;;;;25.60;8.10;;;;;;;11.16;77.81;100524.77;106154;1259;70994;-79
2023/10/03 05:28:30;;;;;;;20.40;8.10;;;;;;;11.24;77.23;100524.52;106354;1257;61619;-81
2023/10/03 05:30:58;;;;;;;15.60;7.20;;;;;;;11.37;76.51;100521.57;106108;1257;60049;-80
2023/10/03 05:33:26;;;;;;;24.40;8.40;;;;;;;11.44;75.86;100524.96;105728;1256;71662;-81
2023/10/03 05:35:53;;;;;;;19.00;7.50;;;;;;;11.45;75.74;100525.26;105664;1258;70296;-82
2023/10/03 05:38:23;;;;;;;18.50;7.20;;;;;;;11.46;75.55;100529.92;105793;1260;73287;-81
2023/10/03 05:40:51;;;;;;;17.60;7.10;;;;;;;11.49;75.61;100540.46;106963;1257;61695;-82
2023/10/03 05:43:28;;;;;;;17.70;6.90;;;;;;;11.63;75.39;100542.22;108462;1257;59632;-81
2023/10/03 05:45:57;;;;;;;16.90;7.30;;;;;;;11.76;75.36;100539.83;105560;1258;73065;-81
2023/10/03 05:48:25;;;;;;;20.20;8.10;;;;;;;11.86;75.39;100541.63;105782;1260;70323;-82
2023/10/03 05:50:55;;;;;;;20.50;7.70;;;;;;;11.97;75.14;100538.55;105639;1258;71676;-81
2023/10/03 05:53:23;;;;;;;20.20;8.30;;;;;;;12.06;74.95;100537.83;105926;1257;60132;-83
2023/10/03 05:55:51;;;;;;;17.20;7.60;;;;;;;12.12;74.48;100543.82;105925;1256;59554;-82
2023/10/03 05:58:18;;;;;;;20.10;9.20;;;;;;;12.16;74.01;100549.11;106267;1257;72984;-84
2023/10/03 06:00:46;;;;;;;13.60;6.50;;;;;;;12.21;73.59;100543.96;108472;1255;69757;-81
2023/10/03 06:03:13;;;;;;;16.00;7.20;;;;;;;12.31;73.43;100549.35;108458;1256;71123;-81
2023/10/03 06:05:42;;;;;;;13.90;7.20;;;;;;;12.35;73.27;100545.66;107177;1256;59565;-80
2023/10/03 06:08:12;;;;;;;17.70;8.00;;;;;;;12.35;72.48;100544.60;106967;1256;60066;-81
2023/10/03 06:10:40;;;;;;;18.00;8.10;;;;;;;12.29;72.65;100545.77;107115;1256;73067;-81
2023/10/03 06:13:11;;;;;;;17.30;8.30;;;;;;;12.26;72.68;100546.42;106855;1257;69043;-80
2023/10/03 06:15:41;;;;;;;16.30;7.70;;;;;;;12.27;72.58;100545.97;106200;1257;72483;-80
2023/10/03 06:18:09;;;;;;;17.00;7.70;;;;;;;12.30;71.79;100547.31;105862;1255;60602;-79
2023/10/03 06:20:38;;;;;;;14.50;7.60;;;;;;;12.40;71.51;100544.69;105935;1253;60250;-81
2023/10/03 06:23:05;;;;;;;12.90;7.50;;;;;;;12.47;71.62;100543.79;105996;1253;71778;-82
2023/10/03 06:25:33;;;;;;;17.00;8.20;;;;;;;12.54;71.79;100544.85;105883;1260;68936;-81
2023/10/03 06:28:01;;;;;;;24.00;11.10;;;;;;;12.65;71.54;100546.34;106043;1260;71411;-80
2023/10/03 06:30:29;;;;;;;16.80;9.10;;;;;;;12.74;70.87;100542.81;106157;1255;60078;-80
2023/10/03 06:32:58;;;;;;;17.90;9.50;;;;;;;12.81;70.57;100543.00;105958;1253;60038;-80
2023/10/03 06:35:25;;;;;;;18.20;9.10;;;;;;;12.88;70.02;100546.54;106060;1254;71978;-80
2023/10/03 06:37:53;;;;;;;19.60;9.50;;;;;;;12.94;69.69;100546.95;106336;1254;70287;-81
2023/10/03 06:40:21;;;;;;;25.30;9.80;;;;;;;13.00;69.40;100548.49;106712;1254;71904;-81
2023/10/03 06:42:48;;;;;;;19.90;9.40;;;;;;;13.05;69.31;100549.17;106778;1256;60081;-79
2023/10/03 06:45:16;;;;;;;20.50;8.40;;;;;;;13.13;69.27;100551.52;106881;1254;59542;-79
2023/10/03 06:47:44;;;;;;;13.20;7.70;;;;;;;13.25;68.66;100555.21;106373;1253;71797;-77
2023/10/03 06:50:15;;;;;;;13.20;7.20;;;;;;;13.32;67.91;100552.30;106909;1261;69034;-81
2023/10/03 06:52:43;;;;;;;14.30;7.90;;;;;;;13.39;67.88;100552.70;107029;1254;72587;-79
2023/10/03 06:55:15;;;;;;;13.50;6.90;;;;;;;13.42;67.49;100548.20;107736;1257;60148;-81
2023/10/03 06:57:43;;;;;;;16.20;7.60;;;;;;;13.48;67.68;100546.99;108315;1255;59552;-81
2023/10/03 07:00:14;;;;;;;12.60;7.50;;;;;;;13.60;67.12;100551.27;108903;1253;71142;-81
2023/10/03 07:02:45;;;;;;;17.00;7.90;;;;;;;13.70;66.57;100553.76;109166;1253;69020;-83
2023/10/03 07:05:12;;;;;;;12.60;6.80;;;;;;;13.77;66.03;100549.08;108030;1253;71933;-81
2023/10/03 07:07:40;;;;;;;12.90;7.80;;;;;;;13.82;65.02;100549.98;106741;1258;59616;-80
2023/10/03 07:10:09;;;;;;;12.60;6.90;;;;;;;13.87;65.31;100546.85;107752;1254;60124;-82
2023/10/03 07:12:38;;;;;;;14.20;6.80;;;;;;;13.96;64.87;100539.78;107563;1253;70763;-81
2023/10/03 07:15:08;;;;;;;11.50;6.30;;;;;;;14.06;64.47;100546.14;108369;1253;68727;-82
2023/10/03 07:17:36;;;;;;;12.10;6.40;;;;;;;14.17;63.70;100550.19;107986;1253;73585;-81
2023/10/03 07:20:08;;;;;;;11.70;6.80;;;;;;;14.25;63.36;100543.34;109040;1253;61339;-82
2023/10/03 07:22:35;;;;;;;17.10;7.40;;;;;;;14.34;63.00;100544.07;109209;1254;60961;-79
2023/10/03 07:25:06;;;;;;;12.40;7.40;;;;;;;14.47;62.76;100545.40;106778;1260;71802;-81
2023/10/03 07:27:34;;;;;;;13.30;7.80;;;;;;;14.60;62.42;100546.92;106878;1254;70214;-82
2023/10/03 07:30:03;;;;;;;14.90;7.60;;;;;;;14.75;62.17;100549.17;107531;1254;71436;-82
2023/10/03 07:32:32;;;;;;;12.70;6.60;;;;;;;14.90;61.40;100540.64;106479;1258;59669;-80
2023/10/03 07:35:00;;;;;;;13.30;7.70;;;;;;;15.03;61.15;100544.70;106646;1253;59969;-83
2023/10/03 07:37:27;;;;;;;16.40;7.50;;;;;;;15.14;60.80;100545.77;106691;1253;73202;-83
2023/10/03 07:39:56;;;;;;;13.10;7.10;;;;;;;15.23;60.34;100549.52;106576;1258;70185;-82
2023/10/03 07:42:24;;;;;;;16.00;7.70;;;;;;;15.31;60.30;100545.55;106751;1254;73611;-82
2023/10/03 07:44:52;;;;;;;13.60;7.60;;;;;;;15.41;59.96;100539.78;107420;1252;60144;-82
2023/10/03 07:47:20;;;;;;;12.00;6.60;;;;;;;15.51;59.57;100541.80;107030;1253;59914;-82
2023/10/03 07:49:48;;;;;;;13.00;6.80;;;;;;;15.60;59.08;100539.98;106374;1253;73669;-81
2023/10/03 07:52:19;;;;;;;14.20;6.60;;;;;;;15.67;58.90;100544.04;106472;1254;69035;-82
2023/10/03 07:54:55;;;;;;;9.90;6.60;;;;;;;15.71;58.42;100550.46;106699;1253;72710;-81
2023/10/03 07:57:23;;;;;;;11.80;7.70;;;;;;;15.74;58.20;100548.02;107329;1253;60294;-81
2023/10/03 07:59:52;;;;;;;11.80;6.40;;;;;;;15.74;58.16;100542.66;107859;1253;59611;-82
2023/10/03 08:02:26;;;;;;;12.50;6.80;;;;;;;15.80;58.37;100541.61;108532;1253;71619;-82
2023/10/03 08:04:58;;;;;;;11.50;7.00;;;;;;;15.95;58.06;100544.67;108063;1253;69028;-83
2023/10/03 08:07:27;;;;;;;10.10;6.30;;;;;;;16.14;57.45;100545.55;106748;1253;71061;-80
2023/10/03 08:09:55;;;;;;;12.70;7.50;;;;;;;16.31;57.08;100548.67;106651;1253;62338;-80
2023/10/03 08:12:26;;;;;;;12.60;6.60;;;;;;;16.50;56.60;100552.02;106467;1258;59950;-81
2023/10/03 08:14:54;;;;;;;12.50;7.00;;;;;;;16.72;55.90;100556.27;106104;1253;75675;-83
2023/10/03 08:17:26;;;;;;;11.40;6.60;;;;;;;16.92;55.53;100550.42;106052;1255;70128;-82
2023/10/03 08:19:55;;;;;;;13.60;6.60;;;;;;;17.13;54.86;100542.17;105857;1256;73811;-82
2023/10/03 08:22:22;;;;;;;13.00;7.00;;;;;;;17.31;54.45;100542.02;106112;1253;62333;-82
2023/10/03 08:24:50;;;;;;;16.10;7.50;;;;;;;17.46;53.93;100543.30;106126;1255;59548;-83
2023/10/03 08:27:21;;;;;;;12.40;6.80;;;;;;;17.63;53.59;100544.98;106266;1253;74084;-83
2023/10/03 08:29:51;;;;;;;11.10;6.20;;;;;;;17.79;52.98;100539.36;106671;1252;68146;-81
2023/10/03 08:32:19;;;;;;;12.10;7.70;;;;;;;17.95;52.54;100536.92;107024;1253;73602;-82
2023/10/03 08:34:47;;;;;;;13.10;8.70;;;;;;;18.06;52.28;100533.02;106622;1258;59366;-80
2023/10/03 08:37:21;;;;;;;11.60;6.30;;;;;;;18.09;52.23;100535.77;106024;1254;59660;-82
2023/10/03 08:39:52;;;;;;;10.80;6.30;;;;;;;18.11;52.13;100535.52;105996;1257;74862;-81
2023/10/03 08:42:20;;;;;;;11.80;6.50;;;;;;;18.15;52.05;100534.55;106033;1259;69066;-82
2023/10/03 08:44:52;;;;;;;11.40;5.70;;;;;;;18.24;51.64;100532.65;105983;1258;72498;-82
2023/10/03 08:47:31;;;;;;;8.90;6.00;;;;;;;18.39;51.45;100531.73;105977;1257;59743;-82
2023/10/03 08:50:10;;;;;;;11.40;6.60;;;;;;;18.51;51.22;100523.30;106201;1253;61388;-84
2023/10/03 08:52:49;;;;;;;9.30;5.50;;;;;;;18.63;51.06;100527.41;106231;1255;75537;-84
2023/10/03 08:55:21;;;;;;;10.80;6.10;;;;;;;18.76;50.80;100523.55;106048;1258;68851;-82
2023/10/03 08:57:49;;;;;;;10.30;5.40;;;;;;;18.87;51.09;100515.73;106203;1254;72775;-80
2023/10/03 09:00:17;;;;;;;9.00;5.90;;;;;;;19.04;50.84;100512.05;106587;1253;62008;-82
2023/10/03 09:02:45;;;;;;;9.70;6.10;;;;;;;19.30;50.58;100510.05;107346;1254;61616;-81
2023/10/03 09:05:19;;;;;;;11.80;7.40;;;;;;;19.67;50.01;100504.65;108558;1253;71461;-82
2023/10/03 09:07:47;;;;;;;17.60;11.50;;;;;;;20.12;49.12;100500.14;107584;1253;72106;-82
2023/10/03 09:10:24;;;;;;;8.40;5.60;;;;;;;20.57;48.26;100504.48;106923;1255;70367;-81
2023/10/03 09:13:04;;;;;;;9.30;5.30;;;;;;;20.94;46.77;100500.00;108356;1253;60909;-82
2023/10/03 09:15:37;;;;;;;8.90;6.40;;;;;;;21.23;46.35;100500.91;107806;1253;60460;-84
2023/10/03 09:18:09;;;;;;;;;;;;;;;21.58;45.68;100499.79;106218;1253;73842;-83
2023/10/03 09:20:39;;;;;;;10.30;6.50;;;;;;;21.86;44.68;100500.67;105973;1253;70136;-81
2023/10/03 09:23:07;;;;;;;10.90;6.40;;;;;;;22.14;43.61;100503.86;106245;1253;73646;-82
2023/10/03 09:25:38;;;;;;;10.40;6.60;;;;;;;22.49;43.24;100500.92;105890;1258;60394;-83
2023/10/03 09:28:06;;;;;;;10.30;6.60;;;;;;;22.92;42.72;100505.89;106307;1253;61171;-83
2023/10/03 09:30:39;;;;;;;8.60;6.60;;;;;;;23.29;42.12;100498.71;106324;1255;73867;-85
2023/10/03 09:33:12;;;;;;;10.10;6.90;;;;;;;23.58;41.45;100499.46;106088;1256;68699;-82
2023/10/03 09:35:39;;;;;;;8.90;7.10;;;;;;;23.66;41.41;100491.88;106018;1253;70379;-83
2023/10/03 09:38:09;;;;;;;9.80;6.90;;;;;;;23.78;41.15;100490.14;105991;1255;60798;-83
2023/10/03 09:40:51;;;;;;;9.20;7.00;;;;;;;23.86;40.54;100487.74;105971;1258;60439;-84
2023/10/03 09:43:19;;;;;;;10.20;7.70;;;;;;;23.89;39.87;100488.84;106314;1252;72649;-84
2023/10/03 09:45:47;;;;;;;11.70;7.60;;;;;;;23.82;39.98;100488.79;106140;1253;68484;-86
2023/10/03 09:48:15;;;;;;;9.20;7.50;;;;;;;23.75;40.42;100489.64;107282;1253;72611;-83
2023/10/03 09:50:51;;;;;;;8.80;6.80;;;;;;;23.70;40.65;100488.10;106363;1253;60438;-86
2023/10/03 09:53:27;;;;;;;13.10;7.60;;;;;;;23.61;40.27;100495.66;106269;1260;61449;-85
2023/10/03 09:55:56;;;;;;;13.90;8.40;;;;;;;23.52;40.47;100492.27;106263;1253;72614;-85
2023/10/03 09:58:31;;;;;;;10.60;7.30;;;;;;;23.44;40.42;100492.61;106161;1253;69067;-84
2023/10/03 10:00:58;;;;;;;8.90;7.40;;;;;;;23.25;39.03;100492.71;106990;1253;72520;-82
2023/10/03 10:03:33;;;;;;;10.30;6.90;;;;;;;23.02;39.39;100490.09;107548;1253;60493;-80
2023/10/03 10:06:22;;;;;;;12.10;7.30;;;;;;;22.90;39.52;100490.65;107529;1253;60386;-79
2023/10/03 10:08:58;;;;;;;11.20;8.10;;;;;;;22.80;40.16;100484.49;107535;1252;76136;-81
2023/10/03 10:11:27;;;;;;;11.20;8.20;;;;;;;22.72;40.69;100481.45;107111;1253;70112;-81
2023/10/03 10:14:16;;;;;;;12.60;7.60;;;;;;;22.63;41.26;100482.75;106181;1253;72767;-81
2023/10/03 10:17:06;;;;;;;12.90;8.00;;;;;;;22.42;42.00;100478.65;106134;1257;60528;-81
2023/10/03 10:20:09;;;;;;;11.80;7.40;;;;;;;22.16;42.50;100468.33;106047;1253;60499;-81
2023/10/03 10:23:02;;;;;;;12.70;7.50;;;;;;;22.23;42.82;100463.77;106086;1253;72660;-82
2023/10/03 10:25:43;;;;;;;10.80;7.50;;;;;;;22.28;42.98;100457.64;106059;1253;69161;-81
2023/10/03 10:28:13;;;;;;;11.60;8.20;;;;;;;22.34;43.01;100452.94;106956;1257;72255;-82
2023/10/03 10:30:44;;;;;;;12.20;7.60;;;;;;;22.48;42.68;100457.71;106608;1255;60561;-81
2023/10/03 10:33:21;;;;;;;11.70;7.70;;;;;;;22.47;42.97;100446.90;106340;1253;61105;-81
2023/10/03 10:35:54;;;;;;;11.10;6.90;;;;;;;22.50;42.82;100444.86;106308;1253;72994;-81
2023/10/03 10:38:31;;;;;;;12.70;8.70;;;;;;;22.50;42.68;100442.17;106306;1253;69994;-82
2023/10/03 10:41:12;;;;;;;11.60;8.00;;;;;;;22.52;42.35;100437.15;106127;1256;71452;-82
2023/10/03 10:44:05;;;;;;;10.30;7.10;;;;;;;22.55;42.62;100429.58;106804;1256;60420;-83
2023/10/03 10:46:45;;;;;;;9.90;7.20;;;;;;;22.65;42.37;100423.71;106800;1253;60572;-81
2023/10/03 10:49:31;;;;;;;9.90;7.50;;;;;;;22.67;42.59;100424.02;105868;1253;73770;-79
2023/10/03 10:52:01;;;;;;;13.60;8.50;;;;;;;22.72;42.38;100420.48;105900;1253;69959;-80
2023/10/03 10:54:29;;;;;;;10.20;7.20;;;;;;;22.76;41.94;100415.65;106061;1257;72797;-79
2023/10/03 10:57:00;;;;;;;12.10;8.20;;;;;;;22.74;42.10;100415.70;105954;1253;60409;-80
2023/10/03 10:59:27;;;;;;;11.70;8.00;;;;;;;22.73;42.15;100410.47;105941;1254;60485;-81
2023/10/03 11:01:57;;;;;;;11.90;7.90;;;;;;;22.75;42.04;100410.45;106168;1253;73950;-81
2023/10/03 11:04:26;;;;;;;11.10;7.10;;;;;;;22.71;42.18;100406.42;106587;1253;72790;-80
2023/10/03 11:06:53;;;;;;;10.90;6.90;;;;;;;22.60;42.14;100403.21;106457;1254;72709;-80
2023/10/03 11:09:22;;;;;;;11.20;7.30;;;;;;;22.54;42.15;100403.30;106202;1257;60859;-78
2023/10/03 11:11:55;;;;;;;12.60;7.30;;;;;;;22.43;41.81;100409.59;106212;1253;60413;-78
2023/10/03 11:14:33;;;;;;;9.40;7.40;;;;;;;22.30;41.64;100400.81;106512;1253;76066;-79
2023/10/03 11:17:01;;;;;;;10.60;7.70;;;;;;;22.39;41.81;100398.73;107318;1253;71271;-78
2023/10/03 11:19:32;;;;;;;10.50;7.00;;;;;;;22.70;41.64;100392.02;107885;1253;75185;-76
2023/10/03 11:21:59;;;;;;;10.90;7.20;;;;;;;22.97;40.99;100395.59;109109;1252;59233;-79
2023/10/03 11:24:28;;;;;;;10.00;7.00;;;;;;;22.99;40.90;100392.44;109076;1253;58728;-80
2023/10/03 11:26:59;;;;;;;11.60;8.00;;;;;;;22.96;41.09;100392.59;108531;1257;72600;-79
2023/10/03 11:29:41;;;;;;;10.80;7.20;;;;;;;23.13;41.10;100386.39;106761;1253;68945;-80